sensor_id;sensor_type;location;lat;lon;timestamp;temperature;humidity
37594;DHT22;23441;50.856;6.076;2022-10-22T00:00:22;13.40;99.90
37594;DHT22;23441;50.856;6.076;2022-10-22T00:02:48;13.40;99.90
37594;DHT22;23441;50.856;6.076;2022-10-22T00:05:14;13.50;99.90
37594;DHT22;23441;50.856;6.076;2022-10-22T00:07:39;13.40;99.90
37594;DHT22;23441;50.856;6.076;2022-10-22T00:10:06;13.40;99.90
37594;DHT22;23441;50.856;6.076;2022-10-22T00:12:32;13.50;99.90
37594;DHT22;23441;50.856;6.076;2022-10-22T00:14:58;13.50;99.90
37594;DHT22;23441;50.856;6.076;2022-10-22T00:17:24;13.50;99.90
37594;DHT22;23441;50.856;6.076;2022-10-22T00:19:50;13.60;99.90
37594;DHT22;23441;50.856;6.076;2022-10-22T00:22:15;13.50;99.90
37594;DHT22;23441;50.856;6.076;2022-10-22T00:24:41;13.50;99.90
37594;DHT22;23441;50.856;6.076;2022-10-22T00:27:09;13.50;99.90
37594;DHT22;23441;50.856;6.076;2022-10-22T00:29:35;13.50;99.90
37594;DHT22;23441;50.856;6.076;2022-10-22T00:32:02;13.60;99.90
37594;DHT22;23441;50.856;6.076;2022-10-22T00:34:28;13.60;99.90
37594;DHT22;23441;50.856;6.076;2022-10-22T00:36:53;13.60;99.90
37594;DHT22;23441;50.856;6.076;2022-10-22T00:39:21;13.60;99.90
37594;DHT22;23441;50.856;6.076;2022-10-22T00:41:48;13.60;99.90
37594;DHT22;23441;50.856;6.076;2022-10-22T00:47:19;13.80;99.90
37594;DHT22;23441;50.856;6.076;2022-10-22T00:49:47;13.80;99.90
37594;DHT22;23441;50.856;6.076;2022-10-22T00:52:13;13.80;99.90
37594;DHT22;23441;50.856;6.076;2022-10-22T00:54:40;13.70;99.90
37594;DHT22;23441;50.856;6.076;2022-10-22T00:57:06;13.70;99.90
37594;DHT22;23441;50.856;6.076;2022-10-22T00:59:32;13.60;99.90
37594;DHT22;23441;50.856;6.076;2022-10-22T01:01:58;13.60;99.90
37594;DHT22;23441;50.856;6.076;2022-10-22T01:04:24;13.50;99.90
37594;DHT22;23441;50.856;6.076;2022-10-22T01:06:50;13.50;99.90
37594;DHT22;23441;50.856;6.076;2022-10-22T01:14:51;13.50;99.90
37594;DHT22;23441;50.856;6.076;2022-10-22T01:23:00;13.50;99.90
37594;DHT22;23441;50.856;6.076;2022-10-22T01:30:57;13.60;99.90
37594;DHT22;23441;50.856;6.076;2022-10-22T01:33:24;13.50;99.90
37594;DHT22;23441;50.856;6.076;2022-10-22T01:35:51;13.50;99.90
37594;DHT22;23441;50.856;6.076;2022-10-22T01:38:20;13.60;99.90
37594;DHT22;23441;50.856;6.076;2022-10-22T01:40:48;13.50;99.90
37594;DHT22;23441;50.856;6.076;2022-10-22T01:43:14;13.50;99.90
37594;DHT22;23441;50.856;6.076;2022-10-22T01:45:54;13.60;99.90
37594;DHT22;23441;50.856;6.076;2022-10-22T01:57:03;13.40;99.90
37594;DHT22;23441;50.856;6.076;2022-10-22T02:00:06;13.40;99.90
37594;DHT22;23441;50.856;6.076;2022-10-22T02:03:03;13.40;99.90
37594;DHT22;23441;50.856;6.076;2022-10-22T02:05:34;13.40;99.90
37594;DHT22;23441;50.856;6.076;2022-10-22T02:08:18;13.40;99.90
37594;DHT22;23441;50.856;6.076;2022-10-22T02:10:46;13.30;99.90
37594;DHT22;23441;50.856;6.076;2022-10-22T02:13:16;13.40;99.90
37594;DHT22;23441;50.856;6.076;2022-10-22T02:15:45;13.30;99.90
37594;DHT22;23441;50.856;6.076;2022-10-22T02:18:11;13.40;99.90
37594;DHT22;23441;50.856;6.076;2022-10-22T02:20:40;13.30;99.90
37594;DHT22;23441;50.856;6.076;2022-10-22T02:23:07;13.30;99.90
37594;DHT22;23441;50.856;6.076;2022-10-22T02:25:37;13.30;99.90
37594;DHT22;23441;50.856;6.076;2022-10-22T02:30:37;13.40;99.90
37594;DHT22;23441;50.856;6.076;2022-10-22T02:33:12;13.40;99.90
37594;DHT22;23441;50.856;6.076;2022-10-22T02:35:40;13.40;99.90
37594;DHT22;23441;50.856;6.076;2022-10-22T02:38:07;13.30;99.90
37594;DHT22;23441;50.856;6.076;2022-10-22T02:40:33;13.30;99.90
37594;DHT22;23441;50.856;6.076;2022-10-22T02:42:59;13.30;99.90
37594;DHT22;23441;50.856;6.076;2022-10-22T02:45:28;13.30;99.90
37594;DHT22;23441;50.856;6.076;2022-10-22T02:47:54;13.30;99.90
37594;DHT22;23441;50.856;6.076;2022-10-22T02:50:20;13.50;99.90
37594;DHT22;23441;50.856;6.076;2022-10-22T02:52:46;13.40;99.90
37594;DHT22;23441;50.856;6.076;2022-10-22T02:55:11;13.50;99.90
37594;DHT22;23441;50.856;6.076;2022-10-22T02:57:37;13.60;99.90
37594;DHT22;23441;50.856;6.076;2022-10-22T03:00:05;13.60;99.90
37594;DHT22;23441;50.856;6.076;2022-10-22T03:02:31;13.50;99.90
37594;DHT22;23441;50.856;6.076;2022-10-22T03:04:57;13.50;99.90
37594;DHT22;23441;50.856;6.076;2022-10-22T03:07:22;13.50;99.90
37594;DHT22;23441;50.856;6.076;2022-10-22T03:09:48;13.60;99.90
37594;DHT22;23441;50.856;6.076;2022-10-22T03:12:14;13.60;99.90
37594;DHT22;23441;50.856;6.076;2022-10-22T03:14:40;13.60;99.90
37594;DHT22;23441;50.856;6.076;2022-10-22T03:17:05;13.60;99.90
37594;DHT22;23441;50.856;6.076;2022-10-22T03:19:31;13.60;99.90
37594;DHT22;23441;50.856;6.076;2022-10-22T03:22:02;13.60;99.90
37594;DHT22;23441;50.856;6.076;2022-10-22T03:24:43;13.60;99.90
37594;DHT22;23441;50.856;6.076;2022-10-22T03:27:10;13.70;99.90
37594;DHT22;23441;50.856;6.076;2022-10-22T03:29:37;13.70;99.90
37594;DHT22;23441;50.856;6.076;2022-10-22T03:32:04;13.70;99.90
37594;DHT22;23441;50.856;6.076;2022-10-22T03:34:30;13.60;99.90
37594;DHT22;23441;50.856;6.076;2022-10-22T03:36:57;13.70;99.90
37594;DHT22;23441;50.856;6.076;2022-10-22T03:39:25;13.70;99.90
37594;DHT22;23441;50.856;6.076;2022-10-22T03:41:51;13.80;99.90
37594;DHT22;23441;50.856;6.076;2022-10-22T03:44:18;13.70;99.90
37594;DHT22;23441;50.856;6.076;2022-10-22T03:46:44;13.80;99.90
37594;DHT22;23441;50.856;6.076;2022-10-22T03:49:10;13.70;99.90
37594;DHT22;23441;50.856;6.076;2022-10-22T03:51:36;13.70;99.90
37594;DHT22;23441;50.856;6.076;2022-10-22T03:54:02;13.90;99.90
37594;DHT22;23441;50.856;6.076;2022-10-22T03:56:29;14.10;99.90
37594;DHT22;23441;50.856;6.076;2022-10-22T03:58:56;14.00;99.90
37594;DHT22;23441;50.856;6.076;2022-10-22T04:01:23;14.00;99.90
37594;DHT22;23441;50.856;6.076;2022-10-22T04:03:49;14.00;99.90
37594;DHT22;23441;50.856;6.076;2022-10-22T04:06:14;14.00;99.90
37594;DHT22;23441;50.856;6.076;2022-10-22T04:08:42;14.00;99.90
37594;DHT22;23441;50.856;6.076;2022-10-22T04:11:08;14.10;99.90
37594;DHT22;23441;50.856;6.076;2022-10-22T04:13:34;14.20;99.90
37594;DHT22;23441;50.856;6.076;2022-10-22T04:16:14;14.10;99.90
37594;DHT22;23441;50.856;6.076;2022-10-22T04:18:40;14.10;99.90
37594;DHT22;23441;50.856;6.076;2022-10-22T04:21:08;14.20;99.90
37594;DHT22;23441;50.856;6.076;2022-10-22T04:23:34;14.20;99.90
37594;DHT22;23441;50.856;6.076;2022-10-22T04:26:02;14.20;99.90
37594;DHT22;23441;50.856;6.076;2022-10-22T04:28:28;14.10;99.90
37594;DHT22;23441;50.856;6.076;2022-10-22T04:30:54;14.10;99.90
37594;DHT22;23441;50.856;6.076;2022-10-22T04:33:19;14.00;99.90
37594;DHT22;23441;50.856;6.076;2022-10-22T04:35:45;14.10;99.90
37594;DHT22;23441;50.856;6.076;2022-10-22T04:38:11;14.00;99.90
37594;DHT22;23441;50.856;6.076;2022-10-22T04:40:37;13.90;99.90
37594;DHT22;23441;50.856;6.076;2022-10-22T04:43:03;13.90;99.90
37594;DHT22;23441;50.856;6.076;2022-10-22T04:45:29;13.90;99.90
37594;DHT22;23441;50.856;6.076;2022-10-22T04:47:55;13.80;99.90
37594;DHT22;23441;50.856;6.076;2022-10-22T04:50:21;13.80;99.90
37594;DHT22;23441;50.856;6.076;2022-10-22T04:52:47;13.70;99.90
37594;DHT22;23441;50.856;6.076;2022-10-22T04:55:12;13.70;99.90
37594;DHT22;23441;50.856;6.076;2022-10-22T04:57:38;13.70;99.90
37594;DHT22;23441;50.856;6.076;2022-10-22T05:00:04;13.70;99.90
37594;DHT22;23441;50.856;6.076;2022-10-22T05:02:30;13.70;99.90
37594;DHT22;23441;50.856;6.076;2022-10-22T05:04:56;13.70;99.90
37594;DHT22;23441;50.856;6.076;2022-10-22T05:07:21;13.70;99.90
37594;DHT22;23441;50.856;6.076;2022-10-22T05:09:48;13.70;99.90
37594;DHT22;23441;50.856;6.076;2022-10-22T05:12:14;13.70;99.90
37594;DHT22;23441;50.856;6.076;2022-10-22T05:14:40;13.70;99.90
37594;DHT22;23441;50.856;6.076;2022-10-22T05:17:06;13.70;99.90
37594;DHT22;23441;50.856;6.076;2022-10-22T05:19:32;13.60;99.90
37594;DHT22;23441;50.856;6.076;2022-10-22T05:22:01;13.60;99.90
37594;DHT22;23441;50.856;6.076;2022-10-22T05:24:27;13.70;99.90
37594;DHT22;23441;50.856;6.076;2022-10-22T05:26:55;13.70;99.90
37594;DHT22;23441;50.856;6.076;2022-10-22T05:29:22;13.70;99.90
37594;DHT22;23441;50.856;6.076;2022-10-22T05:31:48;13.70;99.90
37594;DHT22;23441;50.856;6.076;2022-10-22T05:34:14;13.60;99.90
37594;DHT22;23441;50.856;6.076;2022-10-22T05:36:40;13.60;99.90
37594;DHT22;23441;50.856;6.076;2022-10-22T05:39:06;13.60;99.90
37594;DHT22;23441;50.856;6.076;2022-10-22T05:41:33;13.60;99.90
37594;DHT22;23441;50.856;6.076;2022-10-22T05:44:00;13.60;99.90
37594;DHT22;23441;50.856;6.076;2022-10-22T05:46:28;13.50;99.90
37594;DHT22;23441;50.856;6.076;2022-10-22T05:49:00;13.50;99.90
37594;DHT22;23441;50.856;6.076;2022-10-22T05:51:28;13.40;99.90
37594;DHT22;23441;50.856;6.076;2022-10-22T05:53:56;13.50;99.90
37594;DHT22;23441;50.856;6.076;2022-10-22T05:56:22;13.40;99.90
37594;DHT22;23441;50.856;6.076;2022-10-22T05:58:49;13.40;99.90
37594;DHT22;23441;50.856;6.076;2022-10-22T06:01:23;13.40;99.90
37594;DHT22;23441;50.856;6.076;2022-10-22T06:03:52;13.40;99.90
37594;DHT22;23441;50.856;6.076;2022-10-22T06:06:20;13.30;99.90
37594;DHT22;23441;50.856;6.076;2022-10-22T06:08:48;13.30;99.90
37594;DHT22;23441;50.856;6.076;2022-10-22T06:11:16;13.30;99.90
37594;DHT22;23441;50.856;6.076;2022-10-22T06:13:43;13.20;99.90
37594;DHT22;23441;50.856;6.076;2022-10-22T06:16:09;13.10;99.90
37594;DHT22;23441;50.856;6.076;2022-10-22T06:18:35;13.20;99.90
37594;DHT22;23441;50.856;6.076;2022-10-22T06:21:12;13.20;99.90
37594;DHT22;23441;50.856;6.076;2022-10-22T06:23:38;13.10;99.90
37594;DHT22;23441;50.856;6.076;2022-10-22T06:26:05;13.10;99.90
37594;DHT22;23441;50.856;6.076;2022-10-22T06:28:31;13.20;99.90
37594;DHT22;23441;50.856;6.076;2022-10-22T06:30:58;13.30;99.90
37594;DHT22;23441;50.856;6.076;2022-10-22T06:33:25;13.20;99.90
37594;DHT22;23441;50.856;6.076;2022-10-22T06:35:51;13.20;99.90
37594;DHT22;23441;50.856;6.076;2022-10-22T06:38:17;13.20;99.90
37594;DHT22;23441;50.856;6.076;2022-10-22T06:40:43;13.30;99.90
37594;DHT22;23441;50.856;6.076;2022-10-22T06:43:10;13.30;99.90
37594;DHT22;23441;50.856;6.076;2022-10-22T06:45:36;13.30;99.90
37594;DHT22;23441;50.856;6.076;2022-10-22T06:48:02;13.30;99.90
37594;DHT22;23441;50.856;6.076;2022-10-22T06:50:28;13.30;99.90
37594;DHT22;23441;50.856;6.076;2022-10-22T06:52:55;13.40;99.90
37594;DHT22;23441;50.856;6.076;2022-10-22T06:55:21;13.50;99.90
37594;DHT22;23441;50.856;6.076;2022-10-22T06:57:47;13.60;99.90
37594;DHT22;23441;50.856;6.076;2022-10-22T07:00:13;13.70;99.90
37594;DHT22;23441;50.856;6.076;2022-10-22T07:02:39;13.70;99.90
37594;DHT22;23441;50.856;6.076;2022-10-22T07:05:05;13.80;99.90
37594;DHT22;23441;50.856;6.076;2022-10-22T07:07:31;13.80;99.90
37594;DHT22;23441;50.856;6.076;2022-10-22T07:09:57;13.90;99.90
37594;DHT22;23441;50.856;6.076;2022-10-22T07:12:23;13.90;99.90
37594;DHT22;23441;50.856;6.076;2022-10-22T07:14:49;14.00;99.90
37594;DHT22;23441;50.856;6.076;2022-10-22T07:17:14;14.00;99.90
37594;DHT22;23441;50.856;6.076;2022-10-22T07:19:40;14.00;99.90
37594;DHT22;23441;50.856;6.076;2022-10-22T07:22:06;14.20;99.90
37594;DHT22;23441;50.856;6.076;2022-10-22T07:24:32;14.40;99.90
37594;DHT22;23441;50.856;6.076;2022-10-22T07:26:57;14.50;99.90
37594;DHT22;23441;50.856;6.076;2022-10-22T07:29:23;14.70;99.90
37594;DHT22;23441;50.856;6.076;2022-10-22T07:31:49;14.70;99.90
37594;DHT22;23441;50.856;6.076;2022-10-22T07:34:15;14.80;99.90
37594;DHT22;23441;50.856;6.076;2022-10-22T07:36:41;14.80;99.90
37594;DHT22;23441;50.856;6.076;2022-10-22T07:39:06;14.80;99.90
37594;DHT22;23441;50.856;6.076;2022-10-22T07:41:32;14.90;99.90
37594;DHT22;23441;50.856;6.076;2022-10-22T07:43:58;14.90;99.90
37594;DHT22;23441;50.856;6.076;2022-10-22T07:46:25;14.90;99.90
37594;DHT22;23441;50.856;6.076;2022-10-22T07:48:51;14.90;99.90
37594;DHT22;23441;50.856;6.076;2022-10-22T07:51:17;14.90;99.90
37594;DHT22;23441;50.856;6.076;2022-10-22T07:53:42;14.90;99.90
37594;DHT22;23441;50.856;6.076;2022-10-22T07:56:08;14.80;99.90
37594;DHT22;23441;50.856;6.076;2022-10-22T07:58:34;14.80;99.90
37594;DHT22;23441;50.856;6.076;2022-10-22T08:01:02;14.70;99.90
37594;DHT22;23441;50.856;6.076;2022-10-22T08:03:31;14.70;99.90
37594;DHT22;23441;50.856;6.076;2022-10-22T08:05:57;14.70;99.90
37594;DHT22;23441;50.856;6.076;2022-10-22T08:08:23;14.70;99.90
37594;DHT22;23441;50.856;6.076;2022-10-22T08:10:51;14.70;99.90
37594;DHT22;23441;50.856;6.076;2022-10-22T08:13:18;14.70;99.90
37594;DHT22;23441;50.856;6.076;2022-10-22T08:15:44;14.80;99.90
37594;DHT22;23441;50.856;6.076;2022-10-22T08:18:11;14.80;99.90
37594;DHT22;23441;50.856;6.076;2022-10-22T08:20:37;14.70;99.90
37594;DHT22;23441;50.856;6.076;2022-10-22T08:23:03;14.70;99.90
37594;DHT22;23441;50.856;6.076;2022-10-22T08:25:29;14.80;99.90
37594;DHT22;23441;50.856;6.076;2022-10-22T08:27:55;14.90;99.90
37594;DHT22;23441;50.856;6.076;2022-10-22T08:30:21;15.00;99.90
37594;DHT22;23441;50.856;6.076;2022-10-22T08:32:46;15.20;99.90
37594;DHT22;23441;50.856;6.076;2022-10-22T08:35:12;15.30;99.90
37594;DHT22;23441;50.856;6.076;2022-10-22T08:37:38;15.30;99.90
37594;DHT22;23441;50.856;6.076;2022-10-22T08:40:04;15.30;99.90
37594;DHT22;23441;50.856;6.076;2022-10-22T08:45:24;15.40;99.90
37594;DHT22;23441;50.856;6.076;2022-10-22T08:50:51;15.50;99.90
37594;DHT22;23441;50.856;6.076;2022-10-22T08:53:22;15.60;99.90
37594;DHT22;23441;50.856;6.076;2022-10-22T08:55:52;15.50;99.90
37594;DHT22;23441;50.856;6.076;2022-10-22T08:58:27;15.50;99.90
37594;DHT22;23441;50.856;6.076;2022-10-22T09:01:13;15.50;99.90
37594;DHT22;23441;50.856;6.076;2022-10-22T09:03:59;15.60;99.90
37594;DHT22;23441;50.856;6.076;2022-10-22T09:06:29;15.70;99.90
37594;DHT22;23441;50.856;6.076;2022-10-22T09:08:58;15.70;99.90
37594;DHT22;23441;50.856;6.076;2022-10-22T09:11:31;15.70;99.90
37594;DHT22;23441;50.856;6.076;2022-10-22T09:13:58;15.70;99.90
37594;DHT22;23441;50.856;6.076;2022-10-22T09:19:58;15.80;99.90
37594;DHT22;23441;50.856;6.076;2022-10-22T09:25:21;15.90;99.90
37594;DHT22;23441;50.856;6.076;2022-10-22T09:27:48;15.90;99.90
37594;DHT22;23441;50.856;6.076;2022-10-22T09:30:22;15.90;99.90
37594;DHT22;23441;50.856;6.076;2022-10-22T09:32:59;16.00;99.90
37594;DHT22;23441;50.856;6.076;2022-10-22T09:35:26;16.00;99.90
37594;DHT22;23441;50.856;6.076;2022-10-22T09:37:55;16.00;99.90
37594;DHT22;23441;50.856;6.076;2022-10-22T09:40:21;15.90;99.90
37594;DHT22;23441;50.856;6.076;2022-10-22T09:42:48;15.90;99.90
37594;DHT22;23441;50.856;6.076;2022-10-22T09:45:20;15.90;99.90
37594;DHT22;23441;50.856;6.076;2022-10-22T09:47:48;16.00;99.90
37594;DHT22;23441;50.856;6.076;2022-10-22T09:52:56;16.10;99.90
37594;DHT22;23441;50.856;6.076;2022-10-22T09:55:23;16.10;99.90
37594;DHT22;23441;50.856;6.076;2022-10-22T09:57:54;16.10;99.90
37594;DHT22;23441;50.856;6.076;2022-10-22T10:00:21;16.20;99.90
37594;DHT22;23441;50.856;6.076;2022-10-22T10:02:56;16.10;99.90
37594;DHT22;23441;50.856;6.076;2022-10-22T10:05:35;16.30;99.90
37594;DHT22;23441;50.856;6.076;2022-10-22T10:08:11;16.30;99.90
37594;DHT22;23441;50.856;6.076;2022-10-22T10:10:46;16.30;99.90
37594;DHT22;23441;50.856;6.076;2022-10-22T10:19:00;16.30;99.90
37594;DHT22;23441;50.856;6.076;2022-10-22T10:24:51;16.10;99.90
37594;DHT22;23441;50.856;6.076;2022-10-22T10:27:34;16.10;99.90
37594;DHT22;23441;50.856;6.076;2022-10-22T10:30:13;16.20;99.90
37594;DHT22;23441;50.856;6.076;2022-10-22T10:35:36;16.20;99.90
37594;DHT22;23441;50.856;6.076;2022-10-22T10:38:41;16.30;99.90
37594;DHT22;23441;50.856;6.076;2022-10-22T10:46:43;16.50;99.90
37594;DHT22;23441;50.856;6.076;2022-10-22T10:49:25;16.50;99.90
37594;DHT22;23441;50.856;6.076;2022-10-22T10:52:19;16.50;99.90
37594;DHT22;23441;50.856;6.076;2022-10-22T10:55:17;16.40;99.90
37594;DHT22;23441;50.856;6.076;2022-10-22T11:00:21;16.50;99.90
37594;DHT22;23441;50.856;6.076;2022-10-22T11:06:00;16.60;99.90
37594;DHT22;23441;50.856;6.076;2022-10-22T11:08:33;16.60;99.90
37594;DHT22;23441;50.856;6.076;2022-10-22T11:11:17;16.70;99.90
37594;DHT22;23441;50.856;6.076;2022-10-22T11:24:25;17.00;99.90
37594;DHT22;23441;50.856;6.076;2022-10-22T11:26:56;17.00;99.90
37594;DHT22;23441;50.856;6.076;2022-10-22T11:29:30;17.20;99.90
37594;DHT22;23441;50.856;6.076;2022-10-22T11:31:58;17.20;99.90
37594;DHT22;23441;50.856;6.076;2022-10-22T11:36:55;17.10;99.90
37594;DHT22;23441;50.856;6.076;2022-10-22T11:39:31;17.10;99.90
37594;DHT22;23441;50.856;6.076;2022-10-22T11:42:02;17.30;99.90
37594;DHT22;23441;50.856;6.076;2022-10-22T11:44:28;17.20;99.90
37594;DHT22;23441;50.856;6.076;2022-10-22T11:46:56;17.20;99.90
37594;DHT22;23441;50.856;6.076;2022-10-22T11:49:40;17.20;99.90
37594;DHT22;23441;50.856;6.076;2022-10-22T11:54:57;17.30;99.90
37594;DHT22;23441;50.856;6.076;2022-10-22T11:57:37;17.20;99.90
37594;DHT22;23441;50.856;6.076;2022-10-22T12:03:14;17.30;99.90
37594;DHT22;23441;50.856;6.076;2022-10-22T12:05:42;17.30;99.90
37594;DHT22;23441;50.856;6.076;2022-10-22T12:11:04;17.40;99.90
37594;DHT22;23441;50.856;6.076;2022-10-22T12:16:53;17.30;99.90
37594;DHT22;23441;50.856;6.076;2022-10-22T12:24:34;17.40;99.90
37594;DHT22;23441;50.856;6.076;2022-10-22T12:27:01;17.40;99.90
37594;DHT22;23441;50.856;6.076;2022-10-22T12:29:31;17.40;99.90
37594;DHT22;23441;50.856;6.076;2022-10-22T12:32:02;17.60;99.90
37594;DHT22;23441;50.856;6.076;2022-10-22T12:34:28;17.80;99.90
37594;DHT22;23441;50.856;6.076;2022-10-22T12:36:54;18.00;99.90
37594;DHT22;23441;50.856;6.076;2022-10-22T12:39:24;18.20;99.90
37594;DHT22;23441;50.856;6.076;2022-10-22T12:41:51;18.20;99.90
37594;DHT22;23441;50.856;6.076;2022-10-22T12:44:18;18.30;99.90
37594;DHT22;23441;50.856;6.076;2022-10-22T12:46:46;18.40;99.90
37594;DHT22;23441;50.856;6.076;2022-10-22T12:49:20;18.20;99.90
37594;DHT22;23441;50.856;6.076;2022-10-22T12:51:47;18.00;99.90
37594;DHT22;23441;50.856;6.076;2022-10-22T12:54:25;17.90;99.90
37594;DHT22;23441;50.856;6.076;2022-10-22T12:56:53;17.80;99.90
37594;DHT22;23441;50.856;6.076;2022-10-22T13:01:47;18.00;99.90
37594;DHT22;23441;50.856;6.076;2022-10-22T13:06:48;18.10;99.90
37594;DHT22;23441;50.856;6.076;2022-10-22T13:09:23;18.20;99.90
37594;DHT22;23441;50.856;6.076;2022-10-22T13:11:56;18.10;99.90
37594;DHT22;23441;50.856;6.076;2022-10-22T13:14:33;18.00;99.90
37594;DHT22;23441;50.856;6.076;2022-10-22T13:17:35;18.10;99.90
37594;DHT22;23441;50.856;6.076;2022-10-22T13:20:04;18.30;99.90
37594;DHT22;23441;50.856;6.076;2022-10-22T13:22:35;18.40;99.90
37594;DHT22;23441;50.856;6.076;2022-10-22T13:27:43;18.40;99.90
37594;DHT22;23441;50.856;6.076;2022-10-22T13:30:23;18.40;99.90
37594;DHT22;23441;50.856;6.076;2022-10-22T13:33:01;18.60;99.90
37594;DHT22;23441;50.856;6.076;2022-10-22T13:35:33;18.80;99.90
37594;DHT22;23441;50.856;6.076;2022-10-22T13:37:59;19.00;99.90
37594;DHT22;23441;50.856;6.076;2022-10-22T13:40:25;19.00;99.90
37594;DHT22;23441;50.856;6.076;2022-10-22T13:42:51;18.80;99.90
37594;DHT22;23441;50.856;6.076;2022-10-22T13:45:18;18.80;99.90
37594;DHT22;23441;50.856;6.076;2022-10-22T13:47:49;18.60;99.90
37594;DHT22;23441;50.856;6.076;2022-10-22T13:50:18;18.40;99.90
37594;DHT22;23441;50.856;6.076;2022-10-22T13:52:49;18.20;99.90
37594;DHT22;23441;50.856;6.076;2022-10-22T13:57:46;18.10;99.90
37594;DHT22;23441;50.856;6.076;2022-10-22T14:00:15;18.00;99.90
37594;DHT22;23441;50.856;6.076;2022-10-22T14:02:42;17.90;99.90
37594;DHT22;23441;50.856;6.076;2022-10-22T14:05:08;18.00;99.90
37594;DHT22;23441;50.856;6.076;2022-10-22T14:07:36;18.00;99.90
37594;DHT22;23441;50.856;6.076;2022-10-22T14:10:16;18.10;99.90
37594;DHT22;23441;50.856;6.076;2022-10-22T14:12:42;18.10;99.90
37594;DHT22;23441;50.856;6.076;2022-10-22T14:15:10;18.00;99.90
37594;DHT22;23441;50.856;6.076;2022-10-22T14:17:38;17.90;99.90
37594;DHT22;23441;50.856;6.076;2022-10-22T14:20:04;17.80;99.90
37594;DHT22;23441;50.856;6.076;2022-10-22T14:22:30;17.80;99.90
37594;DHT22;23441;50.856;6.076;2022-10-22T14:24:56;17.70;99.90
37594;DHT22;23441;50.856;6.076;2022-10-22T14:27:21;17.90;99.90
37594;DHT22;23441;50.856;6.076;2022-10-22T14:29:47;17.90;99.90
37594;DHT22;23441;50.856;6.076;2022-10-22T14:32:15;17.90;99.90
37594;DHT22;23441;50.856;6.076;2022-10-22T14:34:41;18.00;99.90
37594;DHT22;23441;50.856;6.076;2022-10-22T14:37:18;18.00;99.90
37594;DHT22;23441;50.856;6.076;2022-10-22T14:39:45;17.90;99.90
37594;DHT22;23441;50.856;6.076;2022-10-22T14:42:12;17.90;99.90
37594;DHT22;23441;50.856;6.076;2022-10-22T14:44:39;17.80;99.90
37594;DHT22;23441;50.856;6.076;2022-10-22T14:47:05;17.80;99.90
37594;DHT22;23441;50.856;6.076;2022-10-22T14:49:31;17.80;99.90
37594;DHT22;23441;50.856;6.076;2022-10-22T14:51:56;17.80;99.90
37594;DHT22;23441;50.856;6.076;2022-10-22T14:54:22;17.80;99.90
37594;DHT22;23441;50.856;6.076;2022-10-22T14:56:48;17.70;99.90
37594;DHT22;23441;50.856;6.076;2022-10-22T14:59:14;17.70;99.90
37594;DHT22;23441;50.856;6.076;2022-10-22T15:01:39;17.70;99.90
37594;DHT22;23441;50.856;6.076;2022-10-22T15:04:07;17.70;99.90
37594;DHT22;23441;50.856;6.076;2022-10-22T15:06:34;17.60;99.90
37594;DHT22;23441;50.856;6.076;2022-10-22T15:09:00;17.60;99.90
37594;DHT22;23441;50.856;6.076;2022-10-22T15:11:25;17.50;99.90
37594;DHT22;23441;50.856;6.076;2022-10-22T15:13:51;17.50;99.90
37594;DHT22;23441;50.856;6.076;2022-10-22T15:16:17;17.40;99.90
37594;DHT22;23441;50.856;6.076;2022-10-22T15:18:43;17.40;99.90
37594;DHT22;23441;50.856;6.076;2022-10-22T15:21:18;17.30;99.90
37594;DHT22;23441;50.856;6.076;2022-10-22T15:23:44;17.30;99.90
37594;DHT22;23441;50.856;6.076;2022-10-22T15:26:10;17.30;99.90
37594;DHT22;23441;50.856;6.076;2022-10-22T15:28:38;17.30;99.90
37594;DHT22;23441;50.856;6.076;2022-10-22T15:31:05;17.20;99.90
37594;DHT22;23441;50.856;6.076;2022-10-22T15:33:30;17.10;99.90
37594;DHT22;23441;50.856;6.076;2022-10-22T15:35:57;17.10;99.90
37594;DHT22;23441;50.856;6.076;2022-10-22T15:38:28;17.00;99.90
37594;DHT22;23441;50.856;6.076;2022-10-22T15:41:04;16.90;99.90
37594;DHT22;23441;50.856;6.076;2022-10-22T15:43:30;16.90;99.90
37594;DHT22;23441;50.856;6.076;2022-10-22T15:46:17;16.80;99.90
37594;DHT22;23441;50.856;6.076;2022-10-22T15:48:43;16.70;99.90
37594;DHT22;23441;50.856;6.076;2022-10-22T15:51:12;16.50;99.90
37594;DHT22;23441;50.856;6.076;2022-10-22T15:53:38;16.50;99.90
37594;DHT22;23441;50.856;6.076;2022-10-22T15:56:04;16.40;99.90
37594;DHT22;23441;50.856;6.076;2022-10-22T15:58:31;16.40;99.90
37594;DHT22;23441;50.856;6.076;2022-10-22T16:01:08;16.40;99.90
37594;DHT22;23441;50.856;6.076;2022-10-22T16:03:35;16.30;99.90
37594;DHT22;23441;50.856;6.076;2022-10-22T16:06:02;16.20;99.90
37594;DHT22;23441;50.856;6.076;2022-10-22T16:08:28;16.10;99.90
37594;DHT22;23441;50.856;6.076;2022-10-22T16:10:54;16.00;99.90
37594;DHT22;23441;50.856;6.076;2022-10-22T16:13:20;15.90;99.90
37594;DHT22;23441;50.856;6.076;2022-10-22T16:15:48;15.80;99.90
37594;DHT22;23441;50.856;6.076;2022-10-22T16:18:14;15.80;99.90
37594;DHT22;23441;50.856;6.076;2022-10-22T16:20:40;15.70;99.90
37594;DHT22;23441;50.856;6.076;2022-10-22T16:23:06;15.60;99.90
37594;DHT22;23441;50.856;6.076;2022-10-22T16:25:39;15.50;99.90
37594;DHT22;23441;50.856;6.076;2022-10-22T16:28:06;15.40;99.90
37594;DHT22;23441;50.856;6.076;2022-10-22T16:30:32;15.30;99.90
37594;DHT22;23441;50.856;6.076;2022-10-22T16:32:59;15.20;99.90
37594;DHT22;23441;50.856;6.076;2022-10-22T16:35:25;15.20;99.90
37594;DHT22;23441;50.856;6.076;2022-10-22T16:37:51;15.00;99.90
37594;DHT22;23441;50.856;6.076;2022-10-22T16:40:17;15.00;99.90
37594;DHT22;23441;50.856;6.076;2022-10-22T16:42:43;14.90;99.90
37594;DHT22;23441;50.856;6.076;2022-10-22T16:45:09;14.80;99.90
37594;DHT22;23441;50.856;6.076;2022-10-22T16:47:35;14.80;99.90
37594;DHT22;23441;50.856;6.076;2022-10-22T16:50:01;14.70;99.90
37594;DHT22;23441;50.856;6.076;2022-10-22T16:52:27;14.60;99.90
37594;DHT22;23441;50.856;6.076;2022-10-22T16:54:53;14.60;99.90
37594;DHT22;23441;50.856;6.076;2022-10-22T16:57:20;14.60;99.90
37594;DHT22;23441;50.856;6.076;2022-10-22T16:59:46;14.50;99.90
37594;DHT22;23441;50.856;6.076;2022-10-22T17:02:12;14.50;99.90
37594;DHT22;23441;50.856;6.076;2022-10-22T17:04:37;14.50;99.90
37594;DHT22;23441;50.856;6.076;2022-10-22T17:07:03;14.50;99.90
37594;DHT22;23441;50.856;6.076;2022-10-22T17:09:29;14.40;99.90
37594;DHT22;23441;50.856;6.076;2022-10-22T17:11:55;14.30;99.90
37594;DHT22;23441;50.856;6.076;2022-10-22T17:14:20;14.30;99.90
37594;DHT22;23441;50.856;6.076;2022-10-22T17:16:46;14.30;99.90
37594;DHT22;23441;50.856;6.076;2022-10-22T17:19:19;14.20;99.90
37594;DHT22;23441;50.856;6.076;2022-10-22T17:21:46;14.20;99.90
37594;DHT22;23441;50.856;6.076;2022-10-22T17:24:13;14.20;99.90
37594;DHT22;23441;50.856;6.076;2022-10-22T17:26:39;14.20;99.90